Todd, North Carolina
Current Conditions -  °F | °C
As of 6:15 AM on Sunday 23 Nov 2014 (Local Time) from KTNB Reporting Station
Haze Haze  
Wind Chill:   Ceiling: 700
Heat Index:   Visibility: 5mi
Dew Point:   Wind: 6mph
Humidity: 80%   Direction: 180°S
Pressure: 30.21"   Gusts: NA
Location:  36.31°N, 81.6°W
Report Text: KTNB 231115Z AUTO 18005KT 5SM HZ BKN007 OVC013 07/04 A3021 RMK AO2 T00710038
Loading
Personal Weather Stations






























Interactive Weather Map New forecast layout! Learn more

10-Day Weather Forecast

Advertisements
Track Severe Weather on mobile